Time;durP1;ratioP1;P1;durP2;ratioP2;P2;SDS_P1;SDS_P2;PMS_P1;PMS_P2;Temp;Humidity;BMP_temperature;BMP_pressure;BME280_temperature;BME280_humidity;BME280_pressure;Samples;Min_cycle;Max_cycle;Signal;HPM_P1;HPM_P2
2022/06/19 00:01:56;;;;;;;23.00;5.30;;;21.70;99.90;;;;;;5086293;28;20416;-81
2022/06/19 00:04:22;;;;;;;24.47;5.03;;;21.60;99.90;;;;;;5084562;28;20449;-81
2022/06/19 00:06:48;;;;;;;19.10;4.40;;;21.60;99.90;;;;;;5071272;28;20494;-81
2022/06/19 00:09:14;;;;;;;21.50;5.40;;;21.50;99.90;;;;;;5073017;28;20180;-81
2022/06/19 00:11:39;;;;;;;27.70;6.40;;;21.40;99.90;;;;;;5072887;28;20237;-81
2022/06/19 00:14:06;;;;;;;21.10;5.17;;;21.30;99.90;;;;;;5072835;28;20210;-81
2022/06/19 00:16:32;;;;;;;23.60;5.80;;;21.30;99.90;;;;;;5077578;28;20213;-81
2022/06/19 00:18:58;;;;;;;16.97;5.00;;;21.20;99.90;;;;;;5081458;28;20502;-82
2022/06/19 00:21:24;;;;;;;22.00;4.50;;;21.20;99.90;;;;;;5092938;28;20423;-81
2022/06/19 00:23:50;;;;;;;25.90;5.70;;;21.20;99.90;;;;;;5079566;28;20172;-81
2022/06/19 00:26:15;;;;;;;17.13;5.07;;;21.10;99.90;;;;;;5079168;28;20218;-81
2022/06/19 00:28:41;;;;;;;27.57;6.40;;;21.00;99.90;;;;;;5079073;28;20682;-81
2022/06/19 00:31:09;;;;;;;17.00;5.30;;;21.00;99.90;;;;;;5083406;28;20179;-81
2022/06/19 00:33:35;;;;;;;14.50;5.30;;;21.00;99.90;;;;;;5086480;28;20170;-81
2022/06/19 00:36:01;;;;;;;16.67;5.50;;;21.00;99.90;;;;;;5079403;28;20429;-81
2022/06/19 00:38:26;;;;;;;17.23;5.40;;;20.90;99.90;;;;;;5083244;28;20522;-79
2022/06/19 00:40:57;;;;;;;18.70;5.33;;;20.90;99.90;;;;;;5079087;28;20173;-78
2022/06/19 00:43:23;;;;;;;23.63;4.40;;;20.90;99.90;;;;;;5079028;28;20633;-78
2022/06/19 00:45:50;;;;;;;16.23;5.30;;;20.90;99.90;;;;;;5079089;28;20445;-79
2022/06/19 00:48:18;;;;;;;14.97;4.97;;;20.80;99.90;;;;;;5078864;28;20500;-79
2022/06/19 00:50:47;;;;;;;21.80;5.57;;;20.80;99.90;;;;;;5079151;28;20418;-79
2022/06/19 00:53:19;;;;;;;12.70;5.00;;;20.80;99.90;;;;;;5071752;28;20425;-80
2022/06/19 00:55:47;;;;;;;22.00;5.03;;;20.70;99.90;;;;;;5065922;28;20546;-81
2022/06/19 00:58:32;;;;;;;17.30;5.33;;;20.70;99.90;;;;;;5078842;28;20450;-81
2022/06/19 01:01:06;;;;;;;17.63;4.73;;;20.60;99.90;;;;;;5079156;28;20450;-81
2022/06/19 01:03:44;;;;;;;16.97;4.90;;;20.60;99.90;;;;;;5089154;28;20971;-81
2022/06/19 01:06:10;;;;;;;23.63;5.50;;;20.50;99.90;;;;;;5079074;28;20525;-81
2022/06/19 01:08:44;;;;;;;17.13;5.90;;;20.50;99.90;;;;;;5079027;28;20925;-81
2022/06/19 01:11:09;;;;;;;33.07;6.60;;;20.40;99.90;;;;;;5078820;28;20420;-81
2022/06/19 01:13:36;;;;;;;14.10;4.97;;;20.40;99.90;;;;;;5078951;28;20946;-81
2022/06/19 01:16:03;;;;;;;13.33;5.00;;;20.40;99.90;;;;;;5079101;28;20182;-81
2022/06/19 01:18:32;;;;;;;13.73;5.07;;;20.30;99.90;;;;;;5078568;28;20480;-81
2022/06/19 01:21:05;;;;;;;20.50;5.00;;;20.30;99.90;;;;;;5065271;28;20417;-81
2022/06/19 01:23:39;;;;;;;19.33;5.83;;;20.20;99.90;;;;;;5078263;28;20456;-78
2022/06/19 01:26:05;;;;;;;16.80;5.23;;;20.20;99.90;;;;;;5078474;28;20413;-79
2022/06/19 01:28:45;;;;;;;16.70;5.70;;;20.20;99.90;;;;;;5078490;28;20940;-79
2022/06/19 01:31:17;;;;;;;20.57;5.23;;;20.10;99.90;;;;;;5077063;28;20325;-78
2022/06/19 01:33:51;;;;;;;26.83;5.23;;;20.10;99.90;;;;;;5074937;28;20425;-78
2022/06/19 01:36:20;;;;;;;19.30;5.50;;;20.10;99.90;;;;;;5075529;28;20791;-79
2022/06/19 01:38:49;;;;;;;24.17;5.20;;;20.00;99.90;;;;;;5069550;28;20468;-81
2022/06/19 01:41:25;;;;;;;14.20;5.50;;;20.00;99.90;;;;;;5075310;28;20436;-81
2022/06/19 01:43:51;;;;;;;11.43;5.33;;;20.00;99.90;;;;;;5085336;28;20416;-81
2022/06/19 01:46:17;;;;;;;16.53;5.17;;;20.00;99.90;;;;;;5075282;28;20420;-81
2022/06/19 01:48:44;;;;;;;25.20;4.53;;;19.90;99.90;;;;;;5075957;28;20186;-81
2022/06/19 01:51:10;;;;;;;18.63;5.33;;;19.90;99.90;;;;;;5067377;28;20429;-81
2022/06/19 01:54:06;;;;;;;11.27;5.10;;;19.90;99.90;;;;;;5088744;28;20416;-79
2022/06/19 01:56:32;;;;;;;13.23;4.47;;;19.80;99.90;;;;;;5074926;28;20448;-78
2022/06/19 01:59:09;;;;;;;15.07;4.90;;;19.90;99.90;;;;;;5075172;28;20456;-79
2022/06/19 02:01:36;;;;;;;17.53;4.80;;;19.80;99.90;;;;;;5070015;28;20417;-79
2022/06/19 02:04:05;;;;;;;12.13;4.90;;;19.80;99.90;;;;;;5074975;28;20493;-79
2022/06/19 02:06:44;;;;;;;17.63;5.20;;;19.80;99.90;;;;;;5070454;28;20425;-79
2022/06/19 02:09:11;;;;;;;14.40;5.20;;;19.80;99.90;;;;;;5075084;28;20431;-81
2022/06/19 02:11:36;;;;;;;18.20;5.30;;;19.80;99.90;;;;;;5074952;28;20441;-81
2022/06/19 02:14:05;;;;;;;21.50;4.90;;;19.70;99.90;;;;;;5074731;28;20493;-81
2022/06/19 02:16:35;;;;;;;17.53;5.53;;;19.70;99.90;;;;;;5074652;28;20187;-81
2022/06/19 02:19:01;;;;;;;16.60;5.20;;;19.70;99.90;;;;;;5074609;28;20863;-81
2022/06/19 02:21:55;;;;;;;23.57;5.27;;;19.70;99.90;;;;;;5074130;28;20468;-81
2022/06/19 02:24:24;;;;;;;22.60;4.63;;;19.60;99.90;;;;;;5057267;28;20167;-78
2022/06/19 02:26:51;;;;;;;16.83;4.90;;;19.60;99.90;;;;;;5074257;28;20456;-78
2022/06/19 02:29:18;;;;;;;14.53;4.33;;;19.50;99.90;;;;;;5074354;28;20501;-79
2022/06/19 02:31:51;;;;;;;15.23;5.40;;;19.50;99.90;;;;;;5074376;28;20454;-78
2022/06/19 02:34:38;;;;;;;25.30;5.33;;;19.50;99.90;;;;;;5073096;28;20519;-79
2022/06/19 02:37:24;;;;;;;15.67;4.77;;;19.50;99.90;;;;;;5068425;28;20473;-79
2022/06/19 02:40:07;;;;;;;23.20;5.87;;;19.40;99.90;;;;;;5082236;28;20872;-81
2022/06/19 02:42:43;;;;;;;20.17;5.47;;;19.40;99.90;;;;;;5087270;28;20930;-81
2022/06/19 02:45:16;;;;;;;19.33;5.27;;;19.40;99.90;;;;;;5073696;28;20499;-80
2022/06/19 02:47:43;;;;;;;14.00;5.60;;;19.30;99.90;;;;;;5074343;28;20409;-81
2022/06/19 02:50:14;;;;;;;17.57;4.87;;;19.30;99.90;;;;;;5073837;28;20482;-81
2022/06/19 02:52:39;;;;;;;20.57;5.50;;;19.30;99.90;;;;;;5072967;28;20732;-81
2022/06/19 02:55:06;;;;;;;13.90;5.53;;;19.30;99.90;;;;;;5069546;28;20526;-81
2022/06/19 02:57:32;;;;;;;16.93;5.00;;;19.30;99.90;;;;;;5082779;28;20225;-81
2022/06/19 02:59:58;;;;;;;25.90;5.30;;;19.20;99.90;;;;;;5078471;28;20447;-82
2022/06/19 03:02:25;;;;;;;17.80;5.97;;;19.20;99.90;;;;;;5081122;28;20183;-81
2022/06/19 03:05:00;;;;;;;16.13;5.60;;;19.20;99.90;;;;;;5078343;28;20208;-81
2022/06/19 03:07:29;;;;;;;12.93;5.23;;;19.20;99.90;;;;;;5072599;28;20420;-81
2022/06/19 03:09:55;;;;;;;29.03;6.10;;;19.20;99.90;;;;;;5060773;28;20499;-78
2022/06/19 03:12:21;;;;;;;26.03;5.40;;;19.20;99.90;;;;;;5073756;28;20463;-78
2022/06/19 03:14:48;;;;;;;16.50;5.63;;;19.10;99.90;;;;;;5073603;28;20420;-78
2022/06/19 03:17:16;;;;;;;16.57;5.17;;;19.10;99.90;;;;;;5073463;28;20455;-79
2022/06/19 03:19:42;;;;;;;14.20;5.70;;;19.10;99.90;;;;;;5073020;28;20420;-79
2022/06/19 03:22:08;;;;;;;26.07;6.43;;;19.10;99.90;;;;;;5073170;28;20504;-78
2022/06/19 03:24:34;;;;;;;26.20;5.97;;;19.10;99.90;;;;;;5073668;28;20400;-81
2022/06/19 03:27:00;;;;;;;25.23;5.87;;;19.10;99.90;;;;;;5072948;28;20456;-81
2022/06/19 03:29:26;;;;;;;13.80;5.23;;;19.00;99.90;;;;;;5073403;28;20443;-81
2022/06/19 03:31:56;;;;;;;19.03;6.10;;;19.10;99.90;;;;;;5065529;28;20269;-81
2022/06/19 03:34:22;;;;;;;18.13;5.80;;;19.10;99.90;;;;;;5076964;28;20178;-80
2022/06/19 03:36:47;;;;;;;25.97;5.53;;;19.10;99.90;;;;;;5082823;28;20386;-81
2022/06/19 03:39:14;;;;;;;15.97;5.50;;;19.10;99.90;;;;;;5073481;28;20198;-80
2022/06/19 03:41:39;;;;;;;19.33;6.13;;;19.20;99.90;;;;;;5061953;28;20309;-81
2022/06/19 03:44:06;;;;;;;28.50;6.53;;;19.20;99.90;;;;;;5073308;28;20466;-81
2022/06/19 03:46:32;;;;;;;13.10;5.00;;;19.10;99.90;;;;;;5073205;28;20571;-81
2022/06/19 03:49:03;;;;;;;14.90;5.00;;;19.10;99.90;;;;;;5072733;28;20428;-81
2022/06/19 03:51:29;;;;;;;17.97;6.17;;;19.20;99.90;;;;;;5072836;28;20900;-81
2022/06/19 03:53:56;;;;;;;12.27;5.70;;;19.20;99.90;;;;;;5072544;28;20426;-81
2022/06/19 03:56:32;;;;;;;12.23;4.97;;;19.20;99.90;;;;;;5071645;28;20440;-78
2022/06/19 03:58:58;;;;;;;17.10;5.73;;;19.30;99.90;;;;;;5079028;28;20507;-79
2022/06/19 04:01:42;;;;;;;13.63;5.07;;;19.30;99.90;;;;;;5079078;28;20416;-79
2022/06/19 04:04:09;;;;;;;21.20;6.20;;;19.30;99.90;;;;;;5069485;28;20431;-79
2022/06/19 04:06:40;;;;;;;15.33;4.80;;;19.40;99.90;;;;;;5072540;28;20499;-79
2022/06/19 04:09:08;;;;;;;14.83;5.27;;;19.40;99.90;;;;;;5072883;28;20420;-79
2022/06/19 04:11:34;;;;;;;13.57;5.10;;;19.50;99.90;;;;;;5072865;28;20439;-81
2022/06/19 04:14:02;;;;;;;15.40;5.37;;;19.50;99.90;;;;;;5072957;28;20412;-81
2022/06/19 04:16:30;;;;;;;13.13;5.57;;;19.60;99.90;;;;;;5072482;28;20224;-81
2022/06/19 04:18:57;;;;;;;19.03;5.57;;;19.60;99.90;;;;;;5072710;28;20491;-81
2022/06/19 04:21:28;;;;;;;15.93;5.17;;;19.70;99.90;;;;;;5072372;28;20771;-81
2022/06/19 04:23:58;;;;;;;14.47;5.47;;;19.70;99.90;;;;;;5084394;28;20495;-81
2022/06/19 04:26:29;;;;;;;17.53;5.30;;;19.80;99.90;;;;;;5073722;28;20515;-81
2022/06/19 04:28:56;;;;;;;10.73;5.37;;;19.90;99.90;;;;;;5072803;28;20523;-81
2022/06/19 04:31:22;;;;;;;13.60;4.67;;;19.90;99.90;;;;;;5072305;28;20905;-81
2022/06/19 04:33:47;;;;;;;12.80;4.60;;;20.00;99.90;;;;;;5072777;28;20408;-80
2022/06/19 04:36:16;;;;;;;18.07;5.20;;;20.00;99.90;;;;;;5085994;28;20182;-81
2022/06/19 04:38:43;;;;;;;18.53;5.40;;;20.10;99.90;;;;;;5072710;28;20695;-81
2022/06/19 04:41:24;;;;;;;16.50;5.57;;;20.20;99.90;;;;;;5064768;28;20991;-81
2022/06/19 04:43:50;;;;;;;24.20;5.90;;;20.20;99.90;;;;;;5072636;28;20414;-81
2022/06/19 04:46:17;;;;;;;13.70;5.00;;;20.30;99.90;;;;;;5072224;28;20425;-81
2022/06/19 04:48:42;;;;;;;17.80;5.93;;;20.40;99.90;;;;;;5072440;28;20424;-81
2022/06/19 04:51:08;;;;;;;11.30;5.47;;;20.40;99.90;;;;;;5072379;28;20904;-81
2022/06/19 04:53:34;;;;;;;20.07;5.67;;;20.50;99.90;;;;;;5072385;28;20180;-81
2022/06/19 04:56:00;;;;;;;23.87;5.50;;;20.60;99.90;;;;;;5071759;28;20330;-81
2022/06/19 04:58:26;;;;;;;19.07;5.00;;;20.70;99.90;;;;;;5075168;28;20484;-81
2022/06/19 05:00:53;;;;;;;23.03;5.80;;;20.80;99.90;;;;;;5073310;28;20902;-81
2022/06/19 05:03:20;;;;;;;9.97;4.70;;;20.90;99.90;;;;;;5085904;28;20631;-81
2022/06/19 05:05:47;;;;;;;21.70;5.07;;;21.00;99.90;;;;;;5082200;28;20413;-81
2022/06/19 05:08:13;;;;;;;16.40;4.13;;;21.10;99.90;;;;;;5077887;28;20962;-82
2022/06/19 05:10:41;;;;;;;13.70;5.17;;;21.20;99.90;;;;;;5085255;28;20839;-81
2022/06/19 05:13:20;;;;;;;12.17;5.37;;;21.30;99.90;;;;;;5078346;28;20473;-81
2022/06/19 05:15:47;;;;;;;16.67;4.77;;;21.40;99.90;;;;;;5075839;28;20431;-81
2022/06/19 05:18:13;;;;;;;9.30;5.10;;;21.60;99.90;;;;;;5074548;28;20473;-81
2022/06/19 05:20:39;;;;;;;14.40;4.80;;;21.70;99.90;;;;;;5088183;28;20410;-81
2022/06/19 05:23:07;;;;;;;15.60;5.50;;;21.70;99.90;;;;;;5076377;28;20474;-81
2022/06/19 05:25:33;;;;;;;11.30;5.10;;;21.90;99.90;;;;;;5075796;28;20789;-79
2022/06/19 05:27:58;;;;;;;13.03;5.30;;;22.00;99.90;;;;;;5075504;28;20423;-79
2022/06/19 05:30:24;;;;;;;22.97;4.90;;;22.10;99.90;;;;;;5075615;28;20463;-79
2022/06/19 05:32:50;;;;;;;21.67;5.60;;;22.20;99.90;;;;;;5074837;28;20258;-79
2022/06/19 05:35:15;;;;;;;11.93;4.70;;;22.30;99.90;;;;;;5075348;28;20178;-78
2022/06/19 05:37:41;;;;;;;12.80;5.03;;;22.50;99.90;;;;;;5075258;28;20194;-78
2022/06/19 05:40:11;;;;;;;23.07;5.83;;;22.60;99.90;;;;;;5075109;28;20223;-78
2022/06/19 05:42:37;;;;;;;15.83;5.50;;;22.70;99.90;;;;;;5075570;28;20539;-88
2022/06/19 05:45:03;;;;;;;14.73;5.20;;;22.90;99.90;;;;;;5074776;28;20423;-88
2022/06/19 05:47:29;;;;;;;14.37;5.07;;;23.00;99.90;;;;;;5074983;28;20422;-89
2022/06/19 05:49:56;;;;;;;20.67;5.80;;;23.20;99.90;;;;;;5074626;28;20409;-89
2022/06/19 05:52:24;;;;;;;20.73;5.67;;;23.40;99.90;;;;;;5075062;28;20189;-89
2022/06/19 05:54:53;;;;;;;33.43;5.77;;;23.50;99.90;;;;;;5066999;28;20917;-89
2022/06/19 05:57:20;;;;;;;15.73;5.60;;;23.70;99.90;;;;;;5070425;28;20472;-88
2022/06/19 05:59:50;;;;;;;17.70;5.33;;;23.80;99.90;;;;;;5074521;28;20529;-87
2022/06/19 06:02:21;;;;;;;21.00;5.70;;;24.00;99.90;;;;;;5071246;28;20415;-86
2022/06/19 06:05:37;;;;;;;20.97;5.40;;;24.10;99.90;;;;;;5081427;28;20446;-87
2022/06/19 06:08:03;;;;;;;16.73;5.00;;;24.40;99.90;;;;;;5074790;28;20810;-88
2022/06/19 06:10:32;;;;;;;18.87;5.40;;;24.50;99.90;;;;;;5069565;28;20427;-87
2022/06/19 06:12:57;;;;;;;31.67;5.60;;;24.70;99.90;;;;;;5075034;28;20497;-89
2022/06/19 06:15:38;;;;;;;20.43;5.13;;;24.80;99.90;;;;;;5075184;28;20550;-88
2022/06/19 06:18:43;;;;;;;16.77;4.93;;;25.10;99.90;;;;;;5074608;28;20223;-89
2022/06/19 06:21:31;;;;;;;19.40;5.63;;;25.30;99.90;;;;;;5074835;28;20428;-90
2022/06/19 06:24:43;;;;;;;25.80;5.60;;;25.50;99.90;;;;;;5074924;28;20403;-90
2022/06/19 06:27:26;;;;;;;25.87;5.43;;;25.70;99.90;;;;;;5075153;28;20447;-90
2022/06/19 06:33:13;;;;;;;21.27;5.10;;;26.10;99.90;;;;;;5075726;28;21009;-90
2022/06/19 06:35:56;;;;;;;19.30;5.30;;;26.30;99.90;;;;;;5074825;28;20443;-90
2022/06/19 06:38:44;;;;;;;31.17;5.97;;;26.60;99.90;;;;;;5074941;28;20196;-90
2022/06/19 06:41:55;;;;;;;24.10;5.80;;;26.70;99.90;;;;;;5062921;28;20417;-90
2022/06/19 06:44:26;;;;;;;20.53;6.10;;;26.90;99.90;;;;;;5054580;28;20410;-89
2022/06/19 06:46:52;;;;;;;15.53;6.13;;;27.10;99.90;;;;;;5071298;28;21041;-91
2022/06/19 06:49:18;;;;;;;24.80;6.00;;;27.40;99.90;;;;;;5071014;28;20406;-90
2022/06/19 06:55:08;;;;;;;18.20;5.40;;;27.70;99.90;;;;;;5061748;28;20185;-89
2022/06/19 06:57:38;;;;;;;19.50;6.20;;;28.00;99.90;;;;;;5069493;28;20533;-90
2022/06/19 07:04:19;;;;;;;26.37;6.40;;;28.20;99.90;;;;;;5074545;28;20468;-91
2022/06/19 07:06:45;;;;;;;17.60;6.03;;;28.40;99.90;;;;;;5077783;28;20440;-88
2022/06/19 07:09:10;;;;;;;21.37;5.60;;;28.60;99.90;;;;;;5071842;28;20423;-91
2022/06/19 07:11:40;;;;;;;19.30;6.27;;;28.80;99.90;;;;;;5073797;28;20739;-91
2022/06/19 07:14:06;;;;;;;21.67;6.50;;;28.90;99.90;;;;;;5072549;28;20182;-76
2022/06/19 07:16:32;;;;;;;18.00;6.20;;;29.10;99.90;;;;;;5073370;28;20511;-76
2022/06/19 07:18:58;;;;;;;16.40;6.90;;;29.10;99.90;;;;;;5072635;28;20539;-76
2022/06/19 07:21:24;;;;;;;23.13;6.63;;;29.20;99.90;;;;;;5071552;28;20178;-76
2022/06/19 07:23:51;;;;;;;22.40;6.30;;;29.40;99.90;;;;;;5073311;28;20178;-76
2022/06/19 07:26:19;;;;;;;19.00;6.80;;;29.50;99.90;;;;;;5072934;28;20185;-72
2022/06/19 07:28:46;;;;;;;18.60;7.30;;;29.50;99.90;;;;;;5070606;28;20432;-74
2022/06/19 07:31:12;;;;;;;18.20;6.83;;;29.70;99.90;;;;;;5073412;28;20417;-86
2022/06/19 07:33:39;;;;;;;18.33;6.80;;;29.90;99.90;;;;;;5074009;28;20419;-86
2022/06/19 07:36:07;;;;;;;18.30;7.07;;;29.90;99.90;;;;;;5073931;28;20520;-81
2022/06/19 07:38:33;;;;;;;16.80;7.20;;;30.00;99.90;;;;;;5073277;28;20458;-84
2022/06/19 07:41:02;;;;;;;19.03;6.93;;;30.10;99.90;;;;;;5078006;28;20506;-84
2022/06/19 07:43:32;;;;;;;17.93;6.70;;;30.10;99.90;;;;;;5091876;28;20651;-91
2022/06/19 07:45:58;;;;;;;24.23;7.10;;;30.20;99.90;;;;;;5070592;28;20427;-90
2022/06/19 07:51:08;;;;;;;32.67;7.87;;;30.30;99.90;;;;;;5074897;28;20176;-91
2022/06/19 07:57:32;;;;;;;12.87;7.17;;;30.60;99.90;;;;;;5074795;28;20202;-91
2022/06/19 08:00:17;;;;;;;13.33;6.73;;;30.70;99.90;;;;;;5093437;28;20427;-91
2022/06/19 08:03:08;;;;;;;55.40;8.33;;;30.70;99.90;;;;;;5086265;28;20421;-94
2022/06/19 08:06:02;;;;;;;20.73;7.30;;;30.80;99.90;;;;;;5063030;28;20457;-93
2022/06/19 08:08:55;;;;;;;19.17;8.00;;;30.80;99.90;;;;;;5069629;28;20410;-93
2022/06/19 08:12:13;;;;;;;16.87;7.07;;;30.80;99.90;;;;;;5073088;28;20518;-92
2022/06/19 08:18:38;;;;;;;21.37;7.57;;;30.60;99.90;;;;;;5058160;28;20474;-86
2022/06/19 08:21:08;;;;;;;25.37;7.60;;;30.60;99.90;;;;;;5062130;28;20439;-72
2022/06/19 08:23:33;;;;;;;18.60;7.20;;;30.60;99.90;;;;;;5083624;28;20491;-73
2022/06/19 08:26:14;;;;;;;27.30;7.30;;;30.80;99.90;;;;;;5074003;28;20493;-86
2022/06/19 08:29:01;;;;;;;12.87;7.30;;;31.00;99.90;;;;;;5074016;28;20181;-82
2022/06/19 08:31:32;;;;;;;12.80;7.30;;;31.10;99.90;;;;;;5073014;28;20434;-70
2022/06/19 08:33:58;;;;;;;32.80;7.70;;;31.10;99.90;;;;;;5067812;28;20422;-70
2022/06/19 08:36:34;;;;;;;18.73;7.37;;;31.30;99.90;;;;;;5075775;28;20848;-84
2022/06/19 08:39:04;;;;;;;15.80;7.03;;;31.50;1.00;;;;;;5073150;28;20209;-76
2022/06/19 08:41:57;;;;;;;13.83;6.97;;;31.50;1.00;;;;;;5060455;28;20410;-79
2022/06/19 08:44:40;;;;;;;19.83;7.03;;;31.70;1.00;;;;;;5066309;28;20412;-79
2022/06/19 08:47:29;;;;;;;10.50;6.70;;;31.60;1.00;;;;;;5079554;28;20511;-80
2022/06/19 08:49:54;;;;;;;20.33;6.73;;;31.80;1.00;;;;;;5076656;28;20417;-79
2022/06/19 08:52:34;;;;;;;16.07;6.60;;;31.90;1.00;;;;;;5081519;28;20498;-79
2022/06/19 08:55:28;;;;;;;20.40;6.23;;;32.10;1.00;;;;;;5082177;28;20183;-79
2022/06/19 08:58:01;;;;;;;18.77;6.50;;;32.20;1.00;;;;;;5067305;28;20879;-84
2022/06/19 09:00:45;;;;;;;21.97;6.63;;;32.50;1.00;;;;;;5076273;28;20405;-84
2022/06/19 09:06:44;;;;;;;20.50;6.33;;;32.80;1.00;;;;;;5033823;28;20815;-83
2022/06/19 09:09:33;;;;;;;22.43;6.70;;;32.90;1.00;;;;;;5013894;28;20468;-83
2022/06/19 09:12:19;;;;;;;27.03;7.10;;;32.90;1.00;;;;;;5033406;28;20427;-82
2022/06/19 09:15:07;;;;;;;10.33;5.93;;;32.90;1.00;;;;;;5033482;28;20510;-83
2022/06/19 09:17:46;;;;;;;31.53;8.40;;;33.00;1.00;;;;;;5033432;28;20449;-83
2022/06/19 09:20:40;;;;;;;26.33;7.23;;;33.00;1.00;;;;;;5042740;28;20449;-86
2022/06/19 09:23:06;;;;;;;20.70;6.60;;;33.20;1.00;;;;;;5033510;28;20454;-86
2022/06/19 09:25:40;;;;;;;15.90;6.00;;;33.40;1.00;;;;;;5021499;28;20462;-86
2022/06/19 09:28:21;;;;;;;14.80;6.90;;;33.40;1.00;;;;;;5018401;28;20195;-82
2022/06/19 09:31:00;;;;;;;16.13;6.00;;;33.50;1.00;;;;;;5033659;28;20426;-81
2022/06/19 09:33:38;;;;;;;15.03;6.47;;;33.50;1.00;;;;;;5034560;28;20419;-81
2022/06/19 09:36:20;;;;;;;20.37;6.57;;;33.60;1.00;;;;;;5014329;28;20550;-88
2022/06/19 09:38:58;;;;;;;23.37;6.90;;;33.70;1.00;;;;;;5016101;28;20534;-88
2022/06/19 09:41:56;;;;;;;16.53;6.70;;;33.60;1.00;;;;;;5039642;28;20616;-81
2022/06/19 09:45:07;;;;;;;12.80;6.60;;;33.40;1.00;;;;;;4991256;28;20444;-83
2022/06/19 09:47:41;;;;;;;10.93;6.67;;;33.50;1.00;;;;;;5007871;28;20413;-82
2022/06/19 09:50:36;;;;;;;13.40;6.30;;;33.60;1.00;;;;;;5007703;28;20424;-82
2022/06/19 09:56:33;;;;;;;26.57;6.90;;;33.90;1.00;;;;;;4994413;28;20467;-82
2022/06/19 09:59:40;;;;;;;20.67;6.23;;;34.00;1.00;;;;;;4994907;28;21102;-82
2022/06/19 10:05:51;;;;;;;11.30;6.70;;;34.30;1.00;;;;;;5014234;28;20823;-87
2022/06/19 10:18:50;;;;;;;13.93;7.00;;;34.70;1.00;;;;;;5014417;28;20502;-89
2022/06/19 10:25:14;;;;;;;16.57;7.27;;;34.90;1.00;;;;;;5053923;28;20422;-88
2022/06/19 10:28:12;;;;;;;19.80;7.53;;;34.70;1.00;;;;;;5034775;28;20428;-89
2022/06/19 10:34:43;;;;;;;11.90;6.70;;;34.60;1.00;;;;;;5055944;28;20927;-87
2022/06/19 10:37:37;;;;;;;13.50;6.80;;;34.70;1.00;;;;;;5036883;28;20422;-87
2022/06/19 10:40:30;;;;;;;13.50;6.20;;;35.00;1.00;;;;;;5053955;28;20419;-87
2022/06/19 10:43:30;;;;;;;13.13;6.47;;;35.30;1.00;;;;;;5036582;28;20426;-87
2022/06/19 10:49:45;;;;;;;12.67;7.50;;;35.10;1.00;;;;;;5053439;28;20436;-88
2022/06/19 10:52:33;;;;;;;15.70;6.80;;;35.20;1.00;;;;;;5015942;28;20431;-88
2022/06/19 10:58:23;;;;;;;15.57;6.43;;;35.30;1.00;;;;;;5005186;28;20471;-85
2022/06/19 11:04:39;;;;;;;23.27;6.50;;;35.40;1.00;;;;;;4989647;28;20427;-81
2022/06/19 11:07:21;;;;;;;15.87;6.53;;;35.40;1.00;;;;;;4992471;28;20614;-92
2022/06/19 11:10:40;;;;;;;17.53;7.07;;;35.50;1.00;;;;;;4997994;28;20461;-92
2022/06/19 11:16:51;;;;;;;15.10;6.30;;;36.00;1.00;;;;;;4961948;28;20441;-85
2022/06/19 11:19:32;;;;;;;10.67;6.43;;;36.00;1.00;;;;;;4973783;28;20469;-84
2022/06/19 11:32:16;;;;;;;18.17;6.80;;;35.80;1.00;;;;;;4999250;28;21012;-80
2022/06/19 11:35:04;;;;;;;8.83;5.43;;;36.00;1.00;;;;;;4976720;28;20437;-86
2022/06/19 11:37:52;;;;;;;28.53;6.90;;;36.10;1.00;;;;;;4976830;28;20428;-88
2022/06/19 11:43:39;;;;;;;13.27;6.83;;;35.70;1.00;;;;;;5011729;28;20372;-87
2022/06/19 11:49:28;;;;;;;11.03;5.80;;;35.80;1.00;;;;;;5062998;28;20186;-86
2022/06/19 11:51:59;;;;;;;16.20;6.23;;;35.70;1.00;;;;;;5073649;28;20408;-77
2022/06/19 11:55:19;;;;;;;18.77;6.53;;;35.50;1.00;;;;;;5073684;28;20409;-82
2022/06/19 11:58:13;;;;;;;13.80;6.23;;;35.30;1.00;;;;;;5064145;28;20436;-82
2022/06/19 12:04:33;;;;;;;15.40;5.87;;;35.80;1.00;;;;;;5073759;28;20396;-86
2022/06/19 12:07:35;;;;;;;16.53;6.10;;;35.90;1.00;;;;;;5072922;28;20402;-86
2022/06/19 12:13:30;;;;;;;14.60;5.70;;;35.90;1.00;;;;;;5059030;28;20990;-86
2022/06/19 12:16:20;;;;;;;15.27;6.60;;;35.80;1.00;;;;;;5072744;28;20441;-86
2022/06/19 12:18:46;;;;;;;11.30;6.33;;;35.60;1.00;;;;;;5075438;28;20470;-86
2022/06/19 12:22:01;;;;;;;13.10;6.40;;;35.60;1.00;;;;;;5053436;28;20917;-86
2022/06/19 12:25:07;;;;;;;16.03;6.57;;;35.70;1.00;;;;;;5055450;28;20421;-86
2022/06/19 12:34:25;;;;;;;13.10;5.37;;;35.90;1.00;;;;;;5057711;28;20389;-86
2022/06/19 12:36:59;;;;;;;15.40;5.80;;;35.70;1.00;;;;;;5072170;28;20413;-85
2022/06/19 12:40:03;;;;;;;14.47;5.87;;;35.80;1.00;;;;;;5073333;28;20972;-85
2022/06/19 12:45:58;;;;;;;12.90;6.13;;;35.70;1.00;;;;;;5073361;28;20506;-86
2022/06/19 12:49:07;;;;;;;12.83;6.03;;;35.70;1.00;;;;;;5071601;28;20436;-89
2022/06/19 12:52:22;;;;;;;19.93;6.77;;;35.90;1.00;;;;;;5052603;28;20418;-88
2022/06/19 12:55:31;;;;;;;18.90;7.03;;;36.00;1.00;;;;;;5013274;28;20497;-87
2022/06/19 12:58:23;;;;;;;25.87;6.37;;;36.10;1.00;;;;;;5039942;28;20454;-87
2022/06/19 13:01:09;;;;;;;29.90;6.73;;;36.30;1.00;;;;;;5007292;28;20443;-88
2022/06/19 13:04:09;;;;;;;12.03;6.60;;;36.60;1.00;;;;;;5039184;28;20518;-88
2022/06/19 13:07:13;;;;;;;13.97;6.60;;;36.80;1.00;;;;;;5015369;28;20915;-88
2022/06/19 13:10:07;;;;;;;10.20;6.60;;;36.50;1.00;;;;;;5016864;28;20477;-88
2022/06/19 13:15:56;;;;;;;13.10;6.13;;;36.60;1.00;;;;;;5022701;28;20410;-87
2022/06/19 13:22:32;;;;;;;21.47;6.40;;;36.80;1.00;;;;;;5031781;28;20458;-87
2022/06/19 13:25:36;;;;;;;23.27;6.67;;;36.90;1.00;;;;;;5031589;28;20426;-87
2022/06/19 13:28:32;;;;;;;18.67;6.17;;;37.20;1.00;;;;;;5016586;28;21019;-87
2022/06/19 13:31:25;;;;;;;14.43;7.10;;;37.50;1.00;;;;;;5038671;28;20948;-87
2022/06/19 13:34:20;;;;;;;16.13;6.77;;;37.90;1.00;;;;;;5064416;28;20458;-88
2022/06/19 13:37:01;;;;;;;17.33;6.60;;;37.80;1.00;;;;;;5017832;28;20423;-88
2022/06/19 13:39:52;;;;;;;12.93;6.20;;;38.00;1.00;;;;;;5004831;28;20470;-85
2022/06/19 13:42:40;;;;;;;22.57;6.80;;;37.80;1.00;;;;;;5018675;28;20434;-88
2022/06/19 13:45:26;;;;;;;19.37;6.60;;;38.00;1.00;;;;;;5011045;28;20453;-87
2022/06/19 13:48:11;;;;;;;13.83;5.97;;;38.00;1.00;;;;;;5015391;28;20449;-87
2022/06/19 13:50:44;;;;;;;18.57;7.27;;;37.90;1.00;;;;;;5031353;28;20454;-86
2022/06/19 13:53:33;;;;;;;16.80;6.07;;;37.90;1.00;;;;;;5033137;28;20423;-85
2022/06/19 13:56:07;;;;;;;15.50;6.73;;;37.90;1.00;;;;;;5016319;28;20948;-86
2022/06/19 13:59:17;;;;;;;27.73;7.10;;;37.80;1.00;;;;;;5032771;28;20465;-85
2022/06/19 14:02:07;;;;;;;15.30;6.63;;;37.90;1.00;;;;;;5033348;28;20421;-86
2022/06/19 14:04:47;;;;;;;12.77;6.57;;;38.10;1.00;;;;;;5032935;28;20415;-87
2022/06/19 14:07:24;;;;;;;19.47;7.00;;;38.20;1.00;;;;;;5031170;28;20427;-86
2022/06/19 14:10:08;;;;;;;23.73;6.43;;;38.00;1.00;;;;;;5032892;28;20937;-82
2022/06/19 14:12:56;;;;;;;12.83;6.73;;;37.80;1.00;;;;;;5026845;28;20443;-81
2022/06/19 14:15:40;;;;;;;19.63;6.40;;;37.70;1.00;;;;;;5074435;28;20433;-82
2022/06/19 14:18:24;;;;;;;14.87;6.70;;;37.80;1.00;;;;;;5074397;28;20445;-81
2022/06/19 14:21:10;;;;;;;23.73;7.13;;;37.80;1.00;;;;;;5074797;28;20406;-86
2022/06/19 14:24:03;;;;;;;20.70;7.17;;;37.40;1.00;;;;;;5074535;28;20413;-87
2022/06/19 14:26:57;;;;;;;20.97;6.40;;;37.30;1.00;;;;;;5072898;28;20525;-87
2022/06/19 14:29:35;;;;;;;20.80;6.73;;;37.20;1.00;;;;;;5073201;28;20413;-87
2022/06/19 14:32:03;;;;;;;13.60;6.80;;;37.30;1.00;;;;;;5062904;28;20415;-86
2022/06/19 14:34:45;;;;;;;17.47;6.03;;;37.10;1.00;;;;;;5073406;28;20419;-85
2022/06/19 14:37:26;;;;;;;16.10;7.30;;;37.20;1.00;;;;;;5074608;28;20425;-87
2022/06/19 14:39:53;;;;;;;17.67;7.20;;;37.60;1.00;;;;;;5074152;28;20449;-83
2022/06/19 14:42:19;;;;;;;19.33;6.43;;;37.60;1.00;;;;;;5072266;28;20895;-82
2022/06/19 14:44:52;;;;;;;16.90;7.00;;;37.60;1.00;;;;;;5074378;28;20412;-82
2022/06/19 14:47:47;;;;;;;11.43;6.50;;;37.60;1.00;;;;;;5074886;28;20417;-88
2022/06/19 14:50:50;;;;;;;12.10;5.83;;;37.50;1.00;;;;;;5073527;28;20421;-90
2022/06/19 14:53:25;;;;;;;12.60;5.70;;;37.40;1.00;;;;;;5074041;28;20496;-89
2022/06/19 14:56:09;;;;;;;15.20;6.30;;;37.20;1.00;;;;;;5074779;28;20884;-88
2022/06/19 14:58:48;;;;;;;13.80;6.37;;;37.50;1.00;;;;;;5072995;28;20531;-88
2022/06/19 15:01:25;;;;;;;24.40;6.43;;;38.00;1.00;;;;;;5065125;28;20421;-87
2022/06/19 15:04:01;;;;;;;14.83;7.00;;;38.10;1.00;;;;;;5072764;28;20501;-87
2022/06/19 15:06:45;;;;;;;15.77;6.20;;;38.30;1.00;;;;;;5060933;28;20434;-87
2022/06/19 15:09:58;;;;;;;16.87;6.37;;;38.80;1.00;;;;;;5073620;28;20417;-86
2022/06/19 15:12:28;;;;;;;20.03;6.10;;;39.70;1.00;;;;;;5031491;28;20454;-86